Time;durP1;ratioP1;P1;durP2;ratioP2;P2;SDS_P1;SDS_P2;PMS_P1;PMS_P2;Temp;Humidity;BMP_temperature;BMP_pressure;BME280_temperature;BME280_humidity;BME280_pressure;Samples;Min_cycle;Max_cycle;Signal;HPM_P1;HPM_P2
2022/03/12 00:01:11;;;;;;;11.00;4.78;;;;;;;0.74;72.62;93331.19;4997063;28;20048;-91
2022/03/12 00:03:58;;;;;;;;;;;;;;;;;;;;;
2022/03/12 00:06:42;;;;;;;7.68;4.50;;;;;;;0.98;71.39;93356.25;4999330;28;20042;-92
2022/03/12 00:09:21;;;;;;;7.53;4.38;;;;;;;1.06;71.70;93378.47;4999546;28;20079;-91
2022/03/12 00:12:18;;;;;;;;;;;;;;;;;;;;;
2022/03/12 00:15:19;;;;;;;;;;;;;;;;;;;;;
2022/03/12 00:18:11;;;;;;;9.77;4.20;;;;;;;1.15;71.74;93368.69;5011095;28;20033;-94
2022/03/12 00:20:58;;;;;;;7.32;4.50;;;;;;;1.09;71.87;93369.53;4995875;28;20499;-92
2022/03/12 00:23:50;;;;;;;10.48;4.70;;;;;;;0.87;71.63;93331.13;4980097;28;20041;-91
2022/03/12 00:26:40;;;;;;;12.00;4.57;;;;;;;1.29;71.74;93387.47;5026075;28;20383;-92
2022/03/12 00:29:41;;;;;;;6.55;3.92;;;;;;;0.92;71.49;93322.78;4992261;28;20058;-92
2022/03/12 00:32:26;;;;;;;7.68;3.70;;;;;;;1.31;70.98;93383.69;4998165;28;20064;-91
2022/03/12 00:35:06;;;;;;;8.60;4.40;;;;;;;0.88;71.18;93329.34;4995756;28;20042;-91
2022/03/12 00:38:06;;;;;;;7.50;3.88;;;;;;;1.15;71.01;93371.25;4995347;28;20034;-91
2022/03/12 00:44:14;;;;;;;6.70;4.00;;;;;;;1.04;70.79;93378.66;4975960;28;20104;-92
2022/03/12 00:47:09;;;;;;;;;;;;;;;;;;;;;
2022/03/12 00:50:11;;;;;;;;;;;;;;;;;;;;;
2022/03/12 00:56:07;;;;;;;7.95;4.28;;;;;;;0.69;71.05;93336.97;5014407;28;20088;-91
2022/03/12 00:58:53;;;;;;;8.57;4.13;;;;;;;0.70;70.77;93332.59;5012809;28;20680;-91
2022/03/12 01:01:54;;;;;;;6.78;4.20;;;;;;;0.69;70.79;93331.81;4996678;28;20442;-92
2022/03/12 01:05:12;;;;;;;7.25;4.05;;;;;;;0.98;70.39;93374.31;4984634;28;20491;-92
2022/03/12 01:08:27;;;;;;;7.72;4.15;;;;;;;0.69;70.59;93338.75;5030204;28;20049;-92
2022/03/12 01:11:06;;;;;;;7.55;3.97;;;;;;;0.88;70.55;93378.31;5004374;28;20045;-91
2022/03/12 01:13:57;;;;;;;;;;;;;;;;;;;;;
2022/03/12 01:16:42;;;;;;;10.93;3.95;;;;;;;0.78;71.19;93371.03;4998267;28;20045;-90
2022/03/12 01:20:02;;;;;;;8.50;4.05;;;;;;;1.00;71.24;93398.09;4998703;28;20041;-92
2022/03/12 01:23:07;;;;;;;9.88;3.72;;;;;;;0.80;70.75;93345.84;4996819;28;20404;-91
2022/03/12 01:25:50;;;;;;;6.45;3.85;;;;;;;0.92;70.97;93351.91;4985366;28;20041;-90
2022/03/12 01:28:41;;;;;;;8.32;4.40;;;;;;;0.96;71.54;93365.22;5023887;28;20037;-91
2022/03/12 01:34:35;;;;;;;;;;;;;;;;;;;;;
2022/03/12 01:37:42;;;;;;;8.23;4.80;;;;;;;0.91;73.14;93358.09;4998986;28;20033;-91
2022/03/12 01:40:56;;;;;;;10.18;5.18;;;;;;;0.56;74.18;93314.63;5010984;28;20038;-91
2022/03/12 01:43:37;;;;;;;;;;;;;;;;;;;;;
2022/03/12 01:46:25;;;;;;;7.85;5.13;;;;;;;0.70;75.33;93351.44;5013980;28;20495;-94
2022/03/12 01:49:42;;;;;;;8.65;5.22;;;;;;;0.48;75.20;93309.69;4998170;28;20042;-91
2022/03/12 01:52:26;;;;;;;;;;;;;;;;;;;;;
2022/03/12 01:55:03;;;;;;;9.07;4.78;;;;;;;0.37;77.73;93298.22;5012852;28;20104;-92
2022/03/12 01:57:47;;;;;;;7.28;4.75;;;;;;;0.56;77.40;93349.88;5025521;28;20398;-91
2022/03/12 02:00:53;;;;;;;;;;;;;;;;;;;;;
2022/03/12 02:03:44;;;;;;;7.00;4.50;;;;;;;0.24;77.14;93295.69;5033626;28;20383;-92
2022/03/12 02:06:59;;;;;;;7.57;4.53;;;;;;;0.16;76.71;93304.44;5007977;28;20136;-90
2022/03/12 02:09:39;;;;;;;10.32;4.70;;;;;;;0.56;77.04;93376.47;5023267;28;20120;-91
2022/03/12 02:12:38;;;;;;;7.57;4.68;;;;;;;0.28;77.19;93322.63;5023885;28;20108;-91
2022/03/12 02:15:39;;;;;;;6.88;4.10;;;;;;;0.17;76.38;93305.22;5008378;28;20051;-91
2022/03/12 02:22:07;;;;;;;5.88;3.70;;;;;;;0.13;75.69;93304.03;5017151;28;20040;-91
2022/03/12 02:25:24;;;;;;;7.25;4.13;;;;;;;0.39;76.08;93342.63;5017608;28;20033;-90
2022/03/12 02:28:29;;;;;;;;;;;;;;;;;;;;;
2022/03/12 02:31:17;;;;;;;6.68;3.97;;;;;;;0.16;76.56;93304.44;5010536;28;20045;-91
2022/03/12 02:34:39;;;;;;;;;;;;;;;;;;;;;
2022/03/12 02:37:32;;;;;;;10.32;4.28;;;;;;;0.13;75.60;93307.41;4997747;28;20042;-91
2022/03/12 02:40:33;;;;;;;;;;;;;;;;;;;;;
2022/03/12 02:43:48;;;;;;;6.60;4.05;;;;;;;-0.04;75.89;93291.59;5012950;28;20042;-91
2022/03/12 02:46:36;;;;;;;;;;;;;;;;;;;;;
2022/03/12 02:49:17;;;;;;;7.57;4.20;;;;;;;0.25;75.75;93340.25;4983960;28;20037;-91
2022/03/12 02:52:16;;;;;;;;;;;;;;;;;;;;;
2022/03/12 02:54:57;;;;;;;;;;;;;;;;;;;;;
2022/03/12 02:57:54;;;;;;;;;;;;;;;;;;;;;
2022/03/12 03:00:49;;;;;;;;;;;;;;;;;;;;;
2022/03/12 03:03:41;;;;;;;8.57;3.90;;;;;;;0.08;74.09;93321.88;5000237;28;20049;-90
2022/03/12 03:06:37;;;;;;;;;;;;;;;;;;;;;
2022/03/12 03:09:25;;;;;;;11.02;4.20;;;;;;;0.05;73.88;93317.94;4978874;28;20070;-92
2022/03/12 03:12:20;;;;;;;;;;;;;;;;;;;;;
2022/03/12 03:14:56;;;;;;;6.10;3.88;;;;;;;-0.07;72.86;93301.50;4998219;28;20049;-90
2022/03/12 03:17:27;;;;;;;6.53;3.75;;;;;;;0.15;72.96;93333.75;4965770;28;20049;-91
2022/03/12 03:20:21;;;;;;;7.20;3.78;;;;;;;-0.06;72.34;93303.09;4997035;28;20387;-90
2022/03/12 03:23:54;;;;;;;9.13;3.92;;;;;;;0.25;72.19;93338.50;5015075;28;20123;-91
2022/03/12 03:27:12;;;;;;;;;;;;;;;;;;;;;
2022/03/12 03:30:00;;;;;;;7.13;4.00;;;;;;;0.20;72.27;93335.72;5015726;28;20037;-91
2022/03/12 03:32:42;;;;;;;6.00;3.35;;;;;;;0.25;71.82;93353.13;5001550;28;20123;-91
2022/03/12 03:35:40;;;;;;;8.00;3.72;;;;;;;-0.04;71.50;93304.47;4979915;28;20128;-92
2022/03/12 03:38:39;;;;;;;;;;;;;;;;;;;;;
2022/03/12 03:41:19;;;;;;;7.80;3.75;;;;;;;0.05;70.54;93309.44;5013952;28;20487;-91
2022/03/12 03:44:11;;;;;;;;;;;;;;;;;;;;;
2022/03/12 03:46:59;;;;;;;6.82;3.83;;;;;;;-0.05;71.48;93307.25;5013262;28;20038;-92
2022/03/12 03:49:47;;;;;;;;;;;;;;;;;;;;;
2022/03/12 03:52:18;;;;;;;9.45;4.13;;;;;;;0.02;70.94;93310.59;5001413;28;20045;-91
2022/03/12 03:55:40;;;;;;;;;;;;;;;;;;;;;
2022/03/12 03:58:32;;;;;;;;;;;;;;;;;;;;;
2022/03/12 04:01:50;;;;;;;6.88;3.83;;;;;;;0.10;70.91;93331.00;4984092;28;20050;-90
2022/03/12 04:04:35;;;;;;;7.55;4.18;;;;;;;-0.12;70.83;93286.66;4995173;28;20049;-91
2022/03/12 04:07:41;;;;;;;11.20;4.20;;;;;;;-0.05;70.22;93296.94;4996931;28;20046;-91
2022/03/12 04:10:39;;;;;;;10.32;4.30;;;;;;;0.29;69.55;93346.59;4977470;28;20057;-90
2022/03/12 04:13:46;;;;;;;8.07;4.18;;;;;;;0.21;69.36;93334.75;4976286;28;20042;-90
2022/03/12 04:16:48;;;;;;;6.55;4.07;;;;;;;0.27;69.20;93336.50;4968612;28;20046;-91
2022/03/12 04:19:44;;;;;;;;;;;;;;;;;;;;;
2022/03/12 04:25:42;;;;;;;;;;;;;;;;;;;;;
2022/03/12 04:28:50;;;;;;;6.95;4.30;;;;;;;0.01;67.78;93300.53;4993241;28;20050;-91
2022/03/12 04:31:47;;;;;;;;;;;;;;;;;;;;;
2022/03/12 04:34:40;;;;;;;;;;;;;;;;;;;;;
2022/03/12 04:37:37;;;;;;;8.30;4.88;;;;;;;0.27;67.32;93326.22;4994467;28;20054;-89
2022/03/12 04:41:02;;;;;;;9.23;4.68;;;;;;;-0.05;66.51;93276.34;4963352;28;20067;-90
2022/03/12 04:44:10;;;;;;;7.53;4.13;;;;;;;0.30;67.04;93336.09;4986823;28;20511;-91
2022/03/12 04:47:00;;;;;;;8.10;4.65;;;;;;;0.29;66.72;93328.56;4995570;28;20052;-90
2022/03/12 04:50:03;;;;;;;7.85;4.65;;;;;;;0.16;67.22;93312.16;5012768;28;20060;-90
2022/03/12 04:53:02;;;;;;;8.43;4.45;;;;;;;0.15;66.54;93309.78;5012237;28;20053;-90
2022/03/12 04:56:04;;;;;;;8.45;4.97;;;;;;;0.03;66.07;93288.25;5000577;28;20376;-90
2022/03/12 04:58:48;;;;;;;;;;;;;;;;;;;;;
2022/03/12 05:01:51;;;;;;;;;;;;;;;;;;;;;
2022/03/12 05:04:52;;;;;;;8.52;4.85;;;;;;;-0.03;66.02;93285.47;4996971;28;20049;-91
2022/03/12 05:08:14;;;;;;;;;;;;;;;;;;;;;
2022/03/12 05:11:19;;;;;;;8.83;4.73;;;;;;;-0.01;66.43;93288.63;5017527;28;20372;-91
2022/03/12 05:14:17;;;;;;;7.65;4.22;;;;;;;0.05;66.29;93292.19;5004032;28;20056;-91
2022/03/12 05:16:51;;;;;;;9.65;5.13;;;;;;;-0.02;66.33;93281.13;4982998;28;20050;-91
2022/03/12 05:19:45;;;;;;;;;;;;;;;;;;;;;
2022/03/12 05:22:32;;;;;;;8.30;4.53;;;;;;;0.50;65.95;93351.50;4983807;28;20060;-91
2022/03/12 05:25:11;;;;;;;12.73;4.70;;;;;;;0.03;66.00;93286.44;4984682;28;20091;-91
2022/03/12 05:28:11;;;;;;;8.35;4.75;;;;;;;0.06;66.42;93288.63;4998164;28;20107;-90
2022/03/12 05:30:59;;;;;;;;;;;;;;;;;;;;;
2022/03/12 05:34:06;;;;;;;9.20;5.28;;;;;;;0.05;65.76;93301.72;4998289;28;20042;-92
2022/03/12 05:36:38;;;;;;;8.43;4.35;;;;;;;0.20;65.41;93331.38;5019849;28;20042;-91
2022/03/12 05:39:30;;;;;;;;;;;;;;;;;;;;;
2022/03/12 05:42:09;;;;;;;;;;;;;;;;;;;;;
2022/03/12 05:44:57;;;;;;;9.88;4.40;;;;;;;0.02;64.34;93297.72;5015580;28;20041;-90
2022/03/12 05:47:52;;;;;;;8.65;4.90;;;;;;;0.26;64.19;93345.22;5004220;28;20048;-91
2022/03/12 05:51:00;;;;;;;7.88;4.72;;;;;;;0.39;63.56;93362.44;5002554;28;20038;-90
2022/03/12 05:54:06;;;;;;;;;;;;;;;;;;;;;
2022/03/12 05:57:00;;;;;;;7.65;4.05;;;;;;;0.03;62.46;93311.41;5023131;28;20068;-91
2022/03/12 05:59:48;;;;;;;9.48;4.55;;;;;;;0.02;62.13;93308.03;5010826;28;20061;-90
2022/03/12 06:02:59;;;;;;;10.00;4.85;;;;;;;0.51;61.87;93378.84;4994279;28;20506;-92
2022/03/12 06:05:41;;;;;;;7.90;4.40;;;;;;;0.19;61.93;93316.13;5009199;28;20053;-90
2022/03/12 06:08:31;;;;;;;9.43;4.88;;;;;;;0.17;60.77;93303.44;5005247;28;20031;-90
2022/03/12 06:11:09;;;;;;;8.82;4.18;;;;;;;0.41;59.83;93353.50;4999302;28;20053;-91
2022/03/12 06:13:35;;;;;;;6.68;3.83;;;;;;;0.44;60.03;93367.75;4981674;28;20054;-85
2022/03/12 06:16:02;;;;;;;7.72;4.68;;;;;;;0.47;60.10;93372.50;4994155;28;20561;-85
2022/03/12 06:18:32;;;;;;;8.75;5.03;;;;;;;0.56;60.37;93391.94;4981363;28;20034;-85
2022/03/12 06:20:59;;;;;;;8.90;4.63;;;;;;;0.43;60.82;93366.19;5012701;28;20104;-86
2022/03/12 06:23:26;;;;;;;10.25;5.00;;;;;;;0.56;60.62;93379.03;4984459;28;20032;-85
2022/03/12 06:25:52;;;;;;;8.52;4.97;;;;;;;0.56;61.42;93386.78;5027357;28;20037;-88
2022/03/12 06:28:19;;;;;;;9.55;5.00;;;;;;;0.55;61.33;93392.13;4988881;28;20077;-85
2022/03/12 06:30:47;;;;;;;8.80;4.90;;;;;;;0.55;61.73;93390.31;4990883;28;20049;-85
2022/03/12 06:33:15;;;;;;;7.60;4.35;;;;;;;0.72;61.13;93405.34;5007361;28;20442;-86
2022/03/12 06:35:42;;;;;;;8.40;4.82;;;;;;;0.77;60.79;93408.13;4997234;28;20045;-88
2022/03/12 06:38:10;;;;;;;8.52;4.72;;;;;;;0.71;61.47;93408.94;4998227;28;20479;-86
2022/03/12 06:40:36;;;;;;;10.32;5.07;;;;;;;0.71;61.16;93403.78;5023612;28;20038;-85
2022/03/12 06:43:10;;;;;;;8.50;5.10;;;;;;;0.59;60.68;93394.09;4993714;28;20068;-85
2022/03/12 06:45:36;;;;;;;9.27;4.95;;;;;;;0.79;60.75;93409.50;5005665;28;20538;-85
2022/03/12 06:48:01;;;;;;;6.88;4.20;;;;;;;0.77;60.87;93408.13;5008166;28;20064;-84
2022/03/12 06:50:28;;;;;;;9.23;4.70;;;;;;;0.65;60.87;93391.69;5013814;28;20396;-85
2022/03/12 06:52:55;;;;;;;8.70;4.82;;;;;;;0.62;60.82;93391.09;5009285;28;20033;-85
2022/03/12 06:55:23;;;;;;;6.93;4.22;;;;;;;0.67;60.78;93395.66;5004298;28;20079;-85
2022/03/12 06:57:51;;;;;;;7.65;4.40;;;;;;;0.73;60.80;93407.72;5010792;28;20104;-86
2022/03/12 07:00:22;;;;;;;6.57;4.07;;;;;;;0.82;60.31;93416.81;4969163;28;20041;-86
2022/03/12 07:02:48;;;;;;;9.13;5.07;;;;;;;0.87;60.14;93418.78;5001651;28;20033;-85
2022/03/12 07:05:14;;;;;;;8.32;4.82;;;;;;;0.76;60.21;93401.38;5025064;28;20052;-85
2022/03/12 07:07:41;;;;;;;8.05;4.35;;;;;;;0.93;60.04;93410.25;4969025;28;20041;-85
2022/03/12 07:10:08;;;;;;;8.73;4.90;;;;;;;0.93;59.74;93412.81;5024222;28;20380;-86
2022/03/12 07:12:38;;;;;;;11.15;4.88;;;;;;;1.00;59.51;93421.31;5016678;28;20049;-85
2022/03/12 07:15:05;;;;;;;7.10;4.30;;;;;;;1.03;59.59;93426.06;5011804;28;20490;-86
2022/03/12 07:17:31;;;;;;;8.30;4.68;;;;;;;1.09;59.24;93426.25;5007368;28;20053;-86
2022/03/12 07:19:57;;;;;;;7.28;4.38;;;;;;;1.09;58.97;93418.53;4992964;28;20412;-85
2022/03/12 07:22:25;;;;;;;7.40;4.72;;;;;;;1.11;58.85;93422.47;5022508;28;20113;-85
2022/03/12 07:24:52;;;;;;;7.43;4.38;;;;;;;1.21;58.83;93432.34;4990660;28;20052;-86
2022/03/12 07:27:17;;;;;;;7.50;4.30;;;;;;;1.15;58.38;93415.09;4998158;28;20061;-85
2022/03/12 07:29:43;;;;;;;8.18;4.63;;;;;;;1.21;58.46;93434.91;5020456;28;20479;-85
2022/03/12 07:32:11;;;;;;;10.63;5.85;;;;;;;1.06;58.82;93416.31;4985343;28;20093;-85
2022/03/12 07:34:37;;;;;;;12.90;6.63;;;;;;;1.16;58.79;93421.84;4991180;28;20037;-85
2022/03/12 07:37:03;;;;;;;10.80;5.45;;;;;;;1.20;58.66;93449.59;4977572;28;20040;-86
2022/03/12 07:39:29;;;;;;;7.95;5.05;;;;;;;1.01;58.67;93422.91;5021371;28;20038;-84
2022/03/12 07:41:54;;;;;;;9.18;4.95;;;;;;;1.18;59.33;93451.59;4961949;28;20061;-86
2022/03/12 07:44:20;;;;;;;9.57;4.90;;;;;;;1.15;59.45;93441.69;4979577;28;20038;-86
2022/03/12 07:46:45;;;;;;;7.43;4.40;;;;;;;1.21;59.21;93453.75;4993394;28;20066;-87
2022/03/12 07:49:11;;;;;;;9.32;4.47;;;;;;;1.23;59.28;93448.41;5008341;28;20037;-85
2022/03/12 07:51:37;;;;;;;7.25;4.47;;;;;;;1.25;61.28;93457.53;4993946;28;20030;-86
2022/03/12 07:54:06;;;;;;;8.85;4.90;;;;;;;1.22;62.08;93442.47;4984279;28;20446;-85
2022/03/12 07:56:34;;;;;;;7.57;4.35;;;;;;;1.34;61.56;93459.88;4990707;28;20042;-85
2022/03/12 07:59:00;;;;;;;9.82;4.75;;;;;;;1.28;61.46;93445.22;5023659;28;20175;-87
2022/03/12 08:01:26;;;;;;;8.73;4.85;;;;;;;1.33;62.86;93459.09;4991907;28;20033;-85
2022/03/12 08:03:51;;;;;;;9.30;4.80;;;;;;;1.33;62.53;93463.44;4995373;28;20044;-86
2022/03/12 08:06:18;;;;;;;9.82;4.15;;;;;;;1.30;62.30;93451.75;4976795;28;20034;-86
2022/03/12 08:08:44;;;;;;;7.70;4.45;;;;;;;1.35;62.72;93445.97;5016667;28;20065;-86
2022/03/12 08:11:25;;;;;;;8.48;4.25;;;;;;;1.27;62.05;93446.22;5008837;28;20431;-85
2022/03/12 08:13:52;;;;;;;7.63;4.43;;;;;;;1.49;62.23;93467.34;4998268;28;20079;-86
2022/03/12 08:16:18;;;;;;;7.55;4.38;;;;;;;1.49;61.95;93467.34;4999378;28;20483;-87
2022/03/12 08:18:44;;;;;;;8.65;4.90;;;;;;;1.51;62.13;93480.81;4998531;28;20041;-85
2022/03/12 08:21:11;;;;;;;7.68;4.38;;;;;;;1.51;62.83;93475.66;5005949;28;20049;-85
2022/03/12 08:23:37;;;;;;;8.55;4.22;;;;;;;1.42;62.95;93463.00;5017835;28;20029;-86
2022/03/12 08:26:03;;;;;;;8.15;4.82;;;;;;;1.40;63.38;93470.16;5011047;28;20097;-86
2022/03/12 08:28:32;;;;;;;7.18;4.50;;;;;;;1.17;62.24;93433.75;5011636;28;20053;-87
2022/03/12 08:30:58;;;;;;;10.65;4.97;;;;;;;1.55;62.13;93482.00;5011050;28;20061;-85
2022/03/12 08:33:23;;;;;;;7.05;4.28;;;;;;;1.56;62.47;93473.28;4994793;28;20487;-87
2022/03/12 08:35:52;;;;;;;7.05;4.18;;;;;;;1.52;63.42;93483.22;5016105;28;20034;-88
2022/03/12 08:38:17;;;;;;;7.68;4.10;;;;;;;1.62;62.99;93490.50;5004115;28;20030;-87
2022/03/12 08:40:46;;;;;;;8.88;4.85;;;;;;;1.59;63.00;93483.19;4999125;28;20041;-86
2022/03/12 08:43:13;;;;;;;6.70;4.07;;;;;;;1.57;62.91;93469.69;5016750;28;20042;-86
2022/03/12 08:45:39;;;;;;;15.15;4.40;;;;;;;1.71;62.67;93491.84;4980686;28;20041;-86
2022/03/12 08:48:05;;;;;;;6.82;4.03;;;;;;;1.59;62.56;93467.69;5001589;28;20049;-86
2022/03/12 08:50:32;;;;;;;9.18;4.60;;;;;;;1.74;61.94;93490.66;5008976;28;20038;-86
2022/03/12 08:52:58;;;;;;;6.70;3.97;;;;;;;1.76;61.59;93486.88;5008196;28;20041;-86
2022/03/12 08:55:25;;;;;;;6.90;3.80;;;;;;;1.74;61.87;93478.53;5014538;28;20034;-86
2022/03/12 08:57:52;;;;;;;8.15;4.60;;;;;;;1.83;62.33;93490.19;5016667;28;20056;-86
2022/03/12 09:00:20;;;;;;;7.53;4.10;;;;;;;1.67;61.69;93470.03;5016009;28;20113;-86
2022/03/12 09:02:47;;;;;;;8.55;4.65;;;;;;;1.76;61.12;93470.59;5000628;28;20037;-86
2022/03/12 09:05:14;;;;;;;8.23;4.47;;;;;;;1.97;61.00;93490.13;5008204;28;20499;-85
2022/03/12 09:07:44;;;;;;;8.63;4.40;;;;;;;1.93;60.77;93476.03;5029745;28;20038;-86
2022/03/12 09:10:13;;;;;;;8.27;4.90;;;;;;;2.11;59.83;93485.66;5033565;28;20091;-86
2022/03/12 09:12:42;;;;;;;8.52;4.50;;;;;;;2.08;59.12;93485.06;5033460;28;20041;-86
2022/03/12 09:15:10;;;;;;;7.20;4.40;;;;;;;2.15;60.16;93486.81;4981779;28;20168;-87
2022/03/12 09:17:36;;;;;;;9.68;4.47;;;;;;;2.22;59.54;93496.09;5000080;28;20712;-86
2022/03/12 09:20:06;;;;;;;7.90;4.45;;;;;;;2.18;59.24;93468.31;5015255;28;20065;-86
2022/03/12 09:22:32;;;;;;;21.02;5.10;;;;;;;2.41;59.69;93483.25;5033259;28;20061;-86
2022/03/12 09:24:57;;;;;;;9.23;4.00;;;;;;;2.53;59.00;93488.53;4999676;28;20112;-86
2022/03/12 09:27:23;;;;;;;6.63;4.00;;;;;;;2.39;59.00;93487.84;4985367;28;20499;-84
2022/03/12 09:29:49;;;;;;;7.65;4.40;;;;;;;2.44;57.55;93481.03;4979524;28;20049;-86
2022/03/12 09:32:15;;;;;;;8.48;4.35;;;;;;;2.53;58.59;93484.16;4963430;28;20046;-85
2022/03/12 09:34:41;;;;;;;6.05;3.67;;;;;;;2.39;59.49;93490.44;5014831;28;20506;-85
2022/03/12 09:37:09;;;;;;;8.75;4.45;;;;;;;2.39;57.05;93491.22;5008315;28;20034;-85
2022/03/12 09:39:35;;;;;;;8.73;4.97;;;;;;;2.57;56.73;93487.91;4996242;28;20046;-85
2022/03/12 09:42:01;;;;;;;7.13;4.78;;;;;;;2.61;57.06;93485.66;4995889;28;20040;-86
2022/03/12 09:44:27;;;;;;;10.70;4.60;;;;;;;2.71;56.87;93491.16;4999262;28;20124;-85
2022/03/12 09:46:53;;;;;;;4.80;2.38;;;;;;;2.63;58.78;93479.28;5014672;28;20033;-85
2022/03/12 09:49:19;;;;;;;6.43;4.13;;;;;;;1.88;60.66;93487.00;5015836;28;20422;-85
2022/03/12 09:51:45;;;;;;;8.73;4.30;;;;;;;2.29;60.61;93489.09;5031952;28;20029;-84
2022/03/12 09:54:12;;;;;;;7.80;3.90;;;;;;;2.34;60.82;93485.88;5030742;28;20495;-85
2022/03/12 09:56:39;;;;;;;8.55;4.38;;;;;;;2.33;60.39;93499.03;5015369;28;20124;-85
2022/03/12 09:59:07;;;;;;;6.32;3.63;;;;;;;2.21;60.71;93484.19;5032078;28;20053;-85
2022/03/12 10:01:34;;;;;;;7.85;4.55;;;;;;;2.39;59.78;93493.03;4999047;28;20124;-85
2022/03/12 10:03:59;;;;;;;13.85;4.70;;;;;;;2.53;58.88;93478.19;4998432;28;20080;-84
2022/03/12 10:06:25;;;;;;;7.60;3.65;;;;;;;2.56;59.25;93488.88;5015629;28;20037;-85
2022/03/12 10:08:52;;;;;;;5.72;3.38;;;;;;;2.35;60.56;93490.06;5025163;28;20044;-85
2022/03/12 10:11:18;;;;;;;7.63;4.60;;;;;;;2.25;58.92;93476.81;5012967;28;20053;-84
2022/03/12 10:13:44;;;;;;;8.18;4.55;;;;;;;2.35;59.49;93497.81;4998035;28;20048;-85
2022/03/12 10:16:11;;;;;;;6.53;4.05;;;;;;;2.36;59.11;93480.50;5014511;28;20045;-84
2022/03/12 10:18:38;;;;;;;8.30;4.93;;;;;;;2.58;58.48;93480.91;5014324;28;20041;-84
2022/03/12 10:21:04;;;;;;;7.20;4.20;;;;;;;2.48;60.02;93502.88;4979166;28;20046;-84
2022/03/12 10:23:29;;;;;;;7.40;4.00;;;;;;;2.71;59.17;93502.28;4994809;28;20037;-85
2022/03/12 10:25:55;;;;;;;6.65;3.40;;;;;;;2.80;59.38;93491.66;5009853;28;20045;-86
2022/03/12 10:28:21;;;;;;;7.10;3.90;;;;;;;2.67;60.23;93485.59;5032492;28;20045;-85
2022/03/12 10:30:46;;;;;;;5.85;3.67;;;;;;;2.28;62.40;93497.84;5012691;28;20048;-86
2022/03/12 10:33:23;;;;;;;7.03;4.10;;;;;;;2.16;62.62;93472.91;5032166;28;20044;-84
2022/03/12 10:35:49;;;;;;;7.22;3.78;;;;;;;2.22;62.40;93493.53;5032099;28;20124;-84
2022/03/12 10:38:15;;;;;;;8.25;4.22;;;;;;;2.22;62.29;93497.91;5013951;28;20116;-85
2022/03/12 10:40:41;;;;;;;5.25;3.47;;;;;;;2.15;62.00;93477.28;5006912;28;20038;-85
2022/03/12 10:43:17;;;;;;;8.43;4.40;;;;;;;2.34;60.03;93474.75;4977350;28;20393;-87
2022/03/12 10:45:46;;;;;;;8.23;4.45;;;;;;;2.68;60.09;93492.38;5016293;28;20025;-87
2022/03/12 10:48:12;;;;;;;11.30;3.60;;;;;;;2.35;60.21;93479.72;5013725;28;20069;-84
2022/03/12 10:50:39;;;;;;;6.22;3.58;;;;;;;2.78;60.51;93496.25;5029660;28;20034;-85
2022/03/12 10:53:06;;;;;;;8.68;4.13;;;;;;;2.91;60.48;93470.28;5000310;28;20514;-84
2022/03/12 10:55:33;;;;;;;6.82;4.10;;;;;;;3.27;58.31;93458.34;4991957;28;20102;-86
2022/03/12 10:58:04;;;;;;;6.63;4.05;;;;;;;2.99;59.64;93472.56;5012199;28;20033;-91
2022/03/12 11:00:40;;;;;;;12.17;4.03;;;;;;;3.06;59.27;93468.13;5013603;28;20044;-85
2022/03/12 11:03:12;;;;;;;7.80;4.22;;;;;;;3.22;58.28;93456.41;5013303;28;20045;-84
2022/03/12 11:06:32;;;;;;;7.65;4.38;;;;;;;3.28;58.25;93467.69;5022654;28;20033;-87
2022/03/12 11:09:21;;;;;;;8.35;3.95;;;;;;;2.19;59.46;93408.69;4997542;28;20087;-86
2022/03/12 11:11:52;;;;;;;9.05;4.10;;;;;;;2.66;58.72;93409.06;4989162;28;20045;-85
2022/03/12 11:14:26;;;;;;;7.47;4.15;;;;;;;2.71;58.22;93429.88;4983003;28;20045;-85
2022/03/12 11:16:52;;;;;;;7.57;3.70;;;;;;;2.75;58.20;93404.41;4976472;28;20069;-85
2022/03/12 11:19:37;;;;;;;10.07;4.60;;;;;;;2.95;56.94;93427.47;5004296;28;20030;-85
2022/03/12 11:22:12;;;;;;;7.90;4.60;;;;;;;3.02;56.50;93424.81;4978074;28;20570;-85
2022/03/12 11:24:51;;;;;;;8.77;4.43;;;;;;;3.54;55.57;93428.53;4994508;28;20029;-85
2022/03/12 11:27:39;;;;;;;9.07;5.25;;;;;;;3.01;55.96;93429.16;5011409;28;20033;-84
2022/03/12 11:30:09;;;;;;;9.13;4.35;;;;;;;2.90;56.07;93391.91;4996571;28;20114;-87
2022/03/12 11:32:45;;;;;;;7.95;3.90;;;;;;;3.36;56.34;93457.03;4981034;28;20205;-86
2022/03/12 11:35:21;;;;;;;6.60;4.07;;;;;;;2.58;59.01;93430.00;4988341;28;20030;-84
2022/03/12 11:37:47;;;;;;;7.18;4.53;;;;;;;2.26;59.61;93386.16;4978104;28;20033;-85
2022/03/12 11:40:19;;;;;;;6.43;3.83;;;;;;;2.71;59.48;93411.78;4997335;28;20378;-84
2022/03/12 11:42:45;;;;;;;7.25;3.53;;;;;;;2.52;60.11;93420.50;4987938;28;20568;-85
2022/03/12 11:45:14;;;;;;;7.38;3.90;;;;;;;2.56;60.27;93428.66;4992381;28;20029;-85
2022/03/12 11:47:41;;;;;;;6.85;3.60;;;;;;;2.82;59.99;93437.94;5009622;28;20080;-86
2022/03/12 11:50:23;;;;;;;6.68;4.10;;;;;;;2.70;60.51;93402.47;5021304;28;20038;-86
2022/03/12 11:52:49;;;;;;;3.95;2.22;;;;;;;2.51;61.03;93393.09;5013546;28;20037;-86
2022/03/12 11:55:23;;;;;;;5.50;3.05;;;;;;;2.45;61.08;93430.13;5027999;28;20463;-85
2022/03/12 11:57:51;;;;;;;6.07;3.75;;;;;;;2.38;62.02;93424.22;5008334;28;20072;-86
2022/03/12 12:00:23;;;;;;;5.95;3.58;;;;;;;2.60;62.27;93433.16;4990405;28;20029;-85
2022/03/12 12:02:48;;;;;;;11.18;3.80;;;;;;;2.43;61.70;93432.94;4989538;28;20036;-85
2022/03/12 12:05:17;;;;;;;6.10;3.83;;;;;;;2.33;61.77;93421.50;5000234;28;20080;-84
2022/03/12 12:07:51;;;;;;;6.82;3.65;;;;;;;2.36;61.46;93392.66;4978931;28;20132;-84
2022/03/12 12:10:20;;;;;;;7.78;4.20;;;;;;;1.98;62.32;93389.19;4989506;28;20489;-85
2022/03/12 12:12:51;;;;;;;7.35;4.32;;;;;;;2.62;61.42;93413.06;5006641;28;20038;-86
2022/03/12 12:15:24;;;;;;;8.88;4.22;;;;;;;2.71;60.49;93398.84;4988739;28;20049;-85
2022/03/12 12:17:53;;;;;;;10.98;4.55;;;;;;;2.64;61.47;93398.13;4992683;28;20407;-87
2022/03/12 12:20:21;;;;;;;7.38;4.40;;;;;;;2.46;60.98;93392.97;4980028;28;20506;-83
2022/03/12 12:22:48;;;;;;;6.38;3.95;;;;;;;2.94;60.11;93381.13;4983761;28;20033;-85
2022/03/12 12:25:16;;;;;;;8.07;4.40;;;;;;;2.94;60.72;93402.59;4995655;28;20471;-85
2022/03/12 12:27:50;;;;;;;9.35;4.60;;;;;;;3.40;59.21;93385.72;4991620;28;20045;-86
2022/03/12 12:30:24;;;;;;;10.45;4.72;;;;;;;4.13;57.43;93407.97;5005426;28;20034;-86
2022/03/12 12:32:51;;;;;;;7.57;4.22;;;;;;;4.41;56.33;93380.59;5028092;28;20467;-85
2022/03/12 12:35:23;;;;;;;11.98;4.95;;;;;;;4.43;55.57;93398.50;5027408;28;20113;-85
2022/03/12 12:38:04;;;;;;;8.93;4.65;;;;;;;4.29;56.30;93393.53;4991923;28;20040;-85
2022/03/12 12:40:47;;;;;;;7.00;4.28;;;;;;;4.22;55.34;93386.91;5007968;28;20120;-88
2022/03/12 12:43:20;;;;;;;8.48;4.38;;;;;;;3.44;56.82;93381.66;5028014;28;20041;-84
2022/03/12 12:45:51;;;;;;;8.73;5.22;;;;;;;3.62;57.42;93387.81;4996024;28;20037;-86
2022/03/12 12:48:20;;;;;;;7.43;4.40;;;;;;;3.45;57.05;93393.59;5008817;28;20045;-84
2022/03/12 12:51:15;;;;;;;9.43;5.75;;;;;;;3.98;56.82;93386.88;5025108;28;20839;-85
2022/03/12 12:53:42;;;;;;;12.30;7.32;;;;;;;3.95;56.46;93387.31;5028072;28;20033;-85
2022/03/12 12:56:20;;;;;;;9.68;4.93;;;;;;;3.59;57.06;93383.06;5024410;28;20030;-85
2022/03/12 12:58:52;;;;;;;8.15;5.13;;;;;;;3.63;56.81;93369.47;5025513;28;20034;-87
2022/03/12 13:01:48;;;;;;;9.27;4.30;;;;;;;3.65;57.58;93377.03;5024069;28;20029;-85
2022/03/12 13:04:15;;;;;;;8.02;4.82;;;;;;;4.05;56.60;93356.44;5022080;28;20049;-85
2022/03/12 13:06:41;;;;;;;12.35;5.75;;;;;;;4.12;55.23;93340.78;5015610;28;20025;-85
2022/03/12 13:09:21;;;;;;;7.82;4.63;;;;;;;3.89;56.83;93367.47;4993634;28;20040;-84
2022/03/12 13:12:01;;;;;;;8.60;6.00;;;;;;;4.33;56.10;93363.56;5029577;28;20529;-85
2022/03/12 13:14:30;;;;;;;6.20;3.90;;;;;;;3.69;56.58;93367.78;5022603;28;20030;-85
2022/03/12 13:17:07;;;;;;;13.02;5.97;;;;;;;4.28;55.63;93358.28;4998995;28;20042;-85
2022/03/12 13:19:33;;;;;;;8.77;5.15;;;;;;;4.43;54.37;93363.00;5012624;28;20033;-85
2022/03/12 13:22:20;;;;;;;8.60;4.30;;;;;;;3.88;56.77;93363.31;5014345;28;20486;-84
2022/03/12 13:24:58;;;;;;;11.70;5.57;;;;;;;3.79;57.46;93365.44;5021786;28;20124;-85
2022/03/12 13:27:27;;;;;;;9.20;5.05;;;;;;;3.76;57.23;93358.13;4990939;28;20045;-84
2022/03/12 13:30:10;;;;;;;8.88;4.90;;;;;;;3.79;57.41;93362.06;5011312;28;20029;-85
2022/03/12 13:32:40;;;;;;;10.13;4.47;;;;;;;4.02;56.29;93351.72;5012973;28;20037;-85
2022/03/12 13:35:08;;;;;;;8.10;4.20;;;;;;;4.31;56.09;93342.28;4993615;28;20406;-86
2022/03/12 13:37:35;;;;;;;10.75;5.40;;;;;;;4.59;55.24;93345.97;5030028;28;20037;-84
2022/03/12 13:40:04;;;;;;;8.95;4.22;;;;;;;4.57;54.22;93358.34;5015490;28;20079;-86
2022/03/12 13:42:30;;;;;;;8.10;4.68;;;;;;;4.55;55.53;93344.88;5031902;28;20041;-85
2022/03/12 13:44:57;;;;;;;9.07;4.63;;;;;;;4.58;55.25;93340.00;5032009;28;20045;-86
2022/03/12 13:47:24;;;;;;;10.00;4.63;;;;;;;4.85;54.53;93352.47;4999086;28;20061;-84